METAR AND TAF INFORMATION
METAR FOR YBHM
ADDS - METARS form results

(0112 UTC 24 May 2019)
Data provider http://aviationweather.gov/metar/data/
 
METAR text: YBHM 240100Z AUTO 16019KT 9999 // SCT012 SCT021 SCT031 21/20 Q1019
Conditions at: YBHM (HAMILTON ISLAND , AU) observed 0100 UTC 24 May 2019
Temperature: 21.0°C (70°F)
Dewpoint: 20.0°C (68°F) [RH = 94%]
Pressure (altimeter): 30.09 inches Hg (1019.0 mb)
Winds: from the SSE (160 degrees) at 22 MPH (19 knots; 9.8 m/s)
Visibility: 6 or more miles (10+ km)
Ceiling: at least 12,000 feet AGL
Clouds: scattered clouds at 1200 feet AGL
scattered clouds at 2100 feet AGL
scattered clouds at 3100 feet AGL
Weather: no significant weather observed at this time

METAR text: YBHM 240047Z AUTO 16019KT 9999 // SCT012 BKN032 BKN051 21/20 Q1019
Conditions at: YBHM (HAMILTON ISLAND , AU) observed 0047 UTC 24 May 2019
Temperature: 21.0°C (70°F)
Dewpoint: 20.0°C (68°F) [RH = 94%]
Pressure (altimeter): 30.09 inches Hg (1019.0 mb)
Winds: from the SSE (160 degrees) at 22 MPH (19 knots; 9.8 m/s)
Visibility: 6 or more miles (10+ km)
Ceiling: 3200 feet AGL
Clouds: scattered clouds at 1200 feet AGL
broken clouds at 3200 feet AGL
broken clouds at 5100 feet AGL
Weather: no significant weather observed at this time

METAR text: YBHM 240030Z AUTO 16018KT 9999 // BKN012 BKN032 BKN040 21/20 Q1019
Conditions at: YBHM (HAMILTON ISLAND , AU) observed 0030 UTC 24 May 2019
Temperature: 21.0°C (70°F)
Dewpoint: 20.0°C (68°F) [RH = 94%]
Pressure (altimeter): 30.09 inches Hg (1019.0 mb)
Winds: from the SSE (160 degrees) at 21 MPH (18 knots; 9.3 m/s)
Visibility: 6 or more miles (10+ km)
Ceiling: 1200 feet AGL
Clouds: broken clouds at 1200 feet AGL
broken clouds at 3200 feet AGL
broken clouds at 4000 feet AGL
Weather: no significant weather observed at this time

METAR text: YBHM 240028Z AUTO 16018KT 9999 // BKN012 BKN017 BKN030 21/20 Q1019
Conditions at: YBHM (HAMILTON ISLAND , AU) observed 0028 UTC 24 May 2019
Temperature: 21.0°C (70°F)
Dewpoint: 20.0°C (68°F) [RH = 94%]
Pressure (altimeter): 30.09 inches Hg (1019.0 mb)
Winds: from the SSE (160 degrees) at 21 MPH (18 knots; 9.3 m/s)
Visibility: 6 or more miles (10+ km)
Ceiling: 1200 feet AGL
Clouds: broken clouds at 1200 feet AGL
broken clouds at 1700 feet AGL
broken clouds at 3000 feet AGL
Weather: no significant weather observed at this time

Forecast for: YBHM (HAMILTON ISLAND , AU)
Text: TAF YBHM 232318Z 2400/2412 14020KT 9999 -SHRA SCT020 BKN030 INTER 2400/2408 3000 SHRA BKN010
Forecast period: 0000 to 1200 UTC 24 May 2019
Forecast type: FROM: standard forecast or significant change
Winds: from the SE (140 degrees) at 23 MPH (20 knots; 10.3 m/s)
Visibility: 6 or more miles 10+ km)
Ceiling: 3000 feet AGL
Clouds: scattered clouds at 2000 feet AGL
broken clouds at 3000 feet AGL
Weather: -SHRA  (light rain showers)
Text:
Forecast period: 0000 to 0800 UTC 24 May 2019
Forecast type: TEMPORARY: The following changes expected for less than half the time period
Visibility: 1.86 miles (2.99 km)
Ceiling: 1000 feet AGL
Clouds: broken clouds at 1000 feet AGL
Weather: SHRA  (rain showers)

 AIRPORT MAP

 RUNWAY INFORMATION
Runway 14 Runway length 5591 ft Runway width 148 ft
Runway elevation 15 ft Runway displaced threshold 196 ft Runway heading 143
Runway 32 Runway length 5591 ft Runway width 148 ft
Runway elevation 15 ft Runway displaced threshold 196 ft Runway heading 323

 AIRPORT FREQUENCIES
Type ATIS Name ATIS Frequency 114.4 MHZ
Type CTAF Name CTAF Frequency 126.7 MHZ
Type FSS Name BRISBANE C Frequency 135.5 MHZ
Type TWR Name TWR Frequency 118.7 MHZ

 AIRPORT NEAR NAVIGATION AIDS
Type VOR-DME Name Hamilton Island Frequency 114400 KHZ
Type NDB Name Hamilton Island Frequency 383 KHZ



Powered by Virtual Airlines Manager [v2.6.2]